Portada
METAR-TAF:

METAR-TAF

Aeroports :

Salalah, Oman

latitud: 17-02N, longitud: 054-05E, altitud: 20 m

Observació

L'informe es va fer fa 28 minuts, a les 20:50 UTC
Vent 4 kt del Sud-Est
Temperatura 30°C
Humitat 75%
Pressió 1009 hPa
Visibilitat 10 km o més
Núvols disperses a una alçada de 2500 ft

METAR: OOSA 262050Z 13004KT 9999 SCT025 30/25 Q1009 NOSIG

Hora: 01:18 (21:18 UTC)

Pronòstic

L'informe es va fer fa 3 hores i 38 minuts, a les 17:40 UTC
Pronòstic vàlid del 26 a les 18 UTC al 28 a les 00 UTC
Vent 3 kt amb direcció variable
Visibilitat 10 km o més
Núvols disperses a una alçada de 2500 ft
Evolucionant progressivament
l' 27 a les 05 UTC al 27 a les 07 UTC
Vent 12 kt del Sud
Evolucionant progressivament
l' 27 a les 16 UTC al 27 a les 18 UTC
Vent 3 kt amb direcció variable

TAF: OOSA 261740Z 2618/2800 VRB03KT 9999 SCT025 BECMG 2705/2707 17012KT BECMG 2716/2718 VRB03KT

Observacions i pronòstics meteorològics de més de 4000 aeroports (METAR i TAF).

Les estacions disponibles són els punts grocs i vermells al mapa.

Posi el ratolí al punt desitjat per veure el nom de l'estació.

Feu clic per veure les observacions i els pronòstics meteorològics.

Per canviar el mapa: feu clic els botons verds amb una creu de color negre per apropar; al botó verd amb un guió per allunyar la imatge; o en les fletxes verdes per a mapes adjacents.


METAR-TAF: